sensor_id;sensor_type;location;lat;lon;timestamp;P1;durP1;ratioP1;P2;durP2;ratioP2
40433;SDS011;26146;51.114;5.654;2022-08-21T00:01:56;8.32;;;3.03;;
40433;SDS011;26146;51.114;5.654;2022-08-21T00:05:57;7.13;;;2.97;;
40433;SDS011;26146;51.114;5.654;2022-08-21T00:10:00;8.40;;;3.40;;
40433;SDS011;26146;51.114;5.654;2022-08-21T00:14:02;9.50;;;3.30;;
40433;SDS011;26146;51.114;5.654;2022-08-21T00:18:05;8.73;;;3.42;;
40433;SDS011;26146;51.114;5.654;2022-08-21T00:22:07;6.60;;;3.00;;
40433;SDS011;26146;51.114;5.654;2022-08-21T00:26:09;9.40;;;3.55;;
40433;SDS011;26146;51.114;5.654;2022-08-21T00:30:13;8.23;;;3.33;;
40433;SDS011;26146;51.114;5.654;2022-08-21T00:34:15;7.85;;;3.40;;
40433;SDS011;26146;51.114;5.654;2022-08-21T00:38:16;8.80;;;3.55;;
40433;SDS011;26146;51.114;5.654;2022-08-21T00:42:18;10.45;;;3.33;;
40433;SDS011;26146;51.114;5.654;2022-08-21T00:46:20;7.00;;;3.08;;
40433;SDS011;26146;51.114;5.654;2022-08-21T00:50:22;7.82;;;3.33;;
40433;SDS011;26146;51.114;5.654;2022-08-21T00:54:25;9.02;;;3.72;;
40433;SDS011;26146;51.114;5.654;2022-08-21T00:58:32;8.50;;;3.60;;
40433;SDS011;26146;51.114;5.654;2022-08-21T01:02:36;9.00;;;4.00;;
40433;SDS011;26146;51.114;5.654;2022-08-21T01:06:39;10.90;;;4.30;;
40433;SDS011;26146;51.114;5.654;2022-08-21T01:10:40;8.85;;;4.40;;
40433;SDS011;26146;51.114;5.654;2022-08-21T01:14:42;12.00;;;4.28;;
40433;SDS011;26146;51.114;5.654;2022-08-21T01:18:44;10.43;;;3.75;;
40433;SDS011;26146;51.114;5.654;2022-08-21T01:22:45;9.13;;;3.50;;
40433;SDS011;26146;51.114;5.654;2022-08-21T01:26:46;7.97;;;3.20;;
40433;SDS011;26146;51.114;5.654;2022-08-21T01:30:50;10.25;;;2.97;;
40433;SDS011;26146;51.114;5.654;2022-08-21T01:34:53;8.32;;;3.00;;
40433;SDS011;26146;51.114;5.654;2022-08-21T01:38:55;9.00;;;2.97;;
40433;SDS011;26146;51.114;5.654;2022-08-21T01:42:56;9.25;;;2.97;;
40433;SDS011;26146;51.114;5.654;2022-08-21T01:46:58;8.00;;;2.83;;
40433;SDS011;26146;51.114;5.654;2022-08-21T01:51:00;8.25;;;2.70;;
40433;SDS011;26146;51.114;5.654;2022-08-21T01:55:05;8.05;;;2.85;;
40433;SDS011;26146;51.114;5.654;2022-08-21T01:59:08;10.23;;;3.00;;
40433;SDS011;26146;51.114;5.654;2022-08-21T02:03:09;7.93;;;2.75;;
40433;SDS011;26146;51.114;5.654;2022-08-21T02:07:10;10.00;;;3.03;;
40433;SDS011;26146;51.114;5.654;2022-08-21T02:11:11;10.60;;;2.80;;
40433;SDS011;26146;51.114;5.654;2022-08-21T02:15:12;8.00;;;2.80;;
40433;SDS011;26146;51.114;5.654;2022-08-21T02:19:16;8.50;;;2.88;;
40433;SDS011;26146;51.114;5.654;2022-08-21T02:23:17;12.27;;;3.38;;
40433;SDS011;26146;51.114;5.654;2022-08-21T02:27:18;9.73;;;3.00;;
40433;SDS011;26146;51.114;5.654;2022-08-21T02:31:19;8.77;;;3.03;;
40433;SDS011;26146;51.114;5.654;2022-08-21T02:35:20;10.02;;;3.10;;
40433;SDS011;26146;51.114;5.654;2022-08-21T02:39:21;9.55;;;3.17;;
40433;SDS011;26146;51.114;5.654;2022-08-21T02:43:23;11.07;;;3.13;;
40433;SDS011;26146;51.114;5.654;2022-08-21T02:47:25;9.80;;;2.97;;
40433;SDS011;26146;51.114;5.654;2022-08-21T02:51:26;10.10;;;3.38;;
40433;SDS011;26146;51.114;5.654;2022-08-21T02:55:29;9.27;;;2.95;;
40433;SDS011;26146;51.114;5.654;2022-08-21T02:59:31;10.25;;;3.20;;
40433;SDS011;26146;51.114;5.654;2022-08-21T03:03:32;10.90;;;3.33;;
40433;SDS011;26146;51.114;5.654;2022-08-21T03:07:35;11.15;;;3.10;;
40433;SDS011;26146;51.114;5.654;2022-08-21T03:11:39;10.50;;;2.97;;
40433;SDS011;26146;51.114;5.654;2022-08-21T03:15:40;11.30;;;3.00;;
40433;SDS011;26146;51.114;5.654;2022-08-21T03:19:41;8.18;;;3.10;;
40433;SDS011;26146;51.114;5.654;2022-08-21T03:23:42;11.48;;;3.30;;
40433;SDS011;26146;51.114;5.654;2022-08-21T03:27:46;9.63;;;2.85;;
40433;SDS011;26146;51.114;5.654;2022-08-21T03:31:50;12.57;;;3.58;;
40433;SDS011;26146;51.114;5.654;2022-08-21T03:36:00;10.10;;;2.90;;
40433;SDS011;26146;51.114;5.654;2022-08-21T03:40:05;10.52;;;2.70;;
40433;SDS011;26146;51.114;5.654;2022-08-21T03:44:07;9.25;;;2.80;;
40433;SDS011;26146;51.114;5.654;2022-08-21T03:48:11;14.00;;;3.42;;
40433;SDS011;26146;51.114;5.654;2022-08-21T03:52:12;10.15;;;2.92;;
40433;SDS011;26146;51.114;5.654;2022-08-21T03:56:13;11.30;;;2.90;;
40433;SDS011;26146;51.114;5.654;2022-08-21T04:00:16;10.88;;;2.70;;
40433;SDS011;26146;51.114;5.654;2022-08-21T04:04:19;11.20;;;2.72;;
40433;SDS011;26146;51.114;5.654;2022-08-21T04:08:20;10.55;;;2.88;;
40433;SDS011;26146;51.114;5.654;2022-08-21T04:12:21;8.18;;;2.83;;
40433;SDS011;26146;51.114;5.654;2022-08-21T04:16:22;8.88;;;2.65;;
40433;SDS011;26146;51.114;5.654;2022-08-21T04:20:23;10.30;;;3.05;;
40433;SDS011;26146;51.114;5.654;2022-08-21T04:24:27;9.40;;;2.55;;
40433;SDS011;26146;51.114;5.654;2022-08-21T04:28:28;9.90;;;2.60;;
40433;SDS011;26146;51.114;5.654;2022-08-21T04:32:29;8.23;;;2.80;;
40433;SDS011;26146;51.114;5.654;2022-08-21T04:36:33;9.05;;;2.63;;
40433;SDS011;26146;51.114;5.654;2022-08-21T04:40:34;9.68;;;2.78;;
40433;SDS011;26146;51.114;5.654;2022-08-21T04:44:35;12.00;;;2.75;;
40433;SDS011;26146;51.114;5.654;2022-08-21T04:48:36;10.55;;;2.80;;
40433;SDS011;26146;51.114;5.654;2022-08-21T04:52:37;10.90;;;2.63;;
40433;SDS011;26146;51.114;5.654;2022-08-21T04:56:50;9.73;;;2.40;;
40433;SDS011;26146;51.114;5.654;2022-08-21T05:00:55;12.50;;;2.60;;
40433;SDS011;26146;51.114;5.654;2022-08-21T05:05:00;8.00;;;2.75;;
40433;SDS011;26146;51.114;5.654;2022-08-21T05:09:01;9.02;;;2.38;;
40433;SDS011;26146;51.114;5.654;2022-08-21T05:13:02;8.57;;;2.50;;
40433;SDS011;26146;51.114;5.654;2022-08-21T05:17:05;8.43;;;2.40;;
40433;SDS011;26146;51.114;5.654;2022-08-21T05:21:09;9.68;;;2.78;;
40433;SDS011;26146;51.114;5.654;2022-08-21T05:25:10;11.73;;;2.50;;
40433;SDS011;26146;51.114;5.654;2022-08-21T05:29:11;8.75;;;2.30;;
40433;SDS011;26146;51.114;5.654;2022-08-21T05:33:12;9.40;;;2.83;;
40433;SDS011;26146;51.114;5.654;2022-08-21T05:37:13;9.68;;;2.67;;
40433;SDS011;26146;51.114;5.654;2022-08-21T05:41:14;8.77;;;2.50;;
40433;SDS011;26146;51.114;5.654;2022-08-21T05:45:15;8.32;;;2.05;;
40433;SDS011;26146;51.114;5.654;2022-08-21T05:49:19;10.25;;;2.70;;
40433;SDS011;26146;51.114;5.654;2022-08-21T05:53:21;11.48;;;2.50;;
40433;SDS011;26146;51.114;5.654;2022-08-21T05:57:23;7.88;;;2.20;;
40433;SDS011;26146;51.114;5.654;2022-08-21T06:01:25;8.55;;;2.25;;
40433;SDS011;26146;51.114;5.654;2022-08-21T06:05:26;8.45;;;2.35;;
40433;SDS011;26146;51.114;5.654;2022-08-21T06:09:27;8.60;;;2.28;;
40433;SDS011;26146;51.114;5.654;2022-08-21T06:13:28;7.50;;;2.03;;
40433;SDS011;26146;51.114;5.654;2022-08-21T06:17:29;8.55;;;2.10;;
40433;SDS011;26146;51.114;5.654;2022-08-21T06:21:30;9.18;;;1.70;;
40433;SDS011;26146;51.114;5.654;2022-08-21T06:25:31;9.00;;;1.88;;
40433;SDS011;26146;51.114;5.654;2022-08-21T06:29:40;7.97;;;1.70;;
40433;SDS011;26146;51.114;5.654;2022-08-21T06:33:41;7.32;;;1.73;;
40433;SDS011;26146;51.114;5.654;2022-08-21T06:37:42;8.73;;;1.83;;
40433;SDS011;26146;51.114;5.654;2022-08-21T06:41:43;7.05;;;1.35;;
40433;SDS011;26146;51.114;5.654;2022-08-21T06:45:44;7.43;;;1.50;;
40433;SDS011;26146;51.114;5.654;2022-08-21T06:49:45;7.30;;;1.35;;
40433;SDS011;26146;51.114;5.654;2022-08-21T06:53:48;7.75;;;1.42;;
40433;SDS011;26146;51.114;5.654;2022-08-21T06:57:49;9.85;;;1.40;;
40433;SDS011;26146;51.114;5.654;2022-08-21T07:01:50;7.35;;;1.50;;
40433;SDS011;26146;51.114;5.654;2022-08-21T07:05:53;6.35;;;1.27;;
40433;SDS011;26146;51.114;5.654;2022-08-21T07:09:55;7.00;;;1.05;;
40433;SDS011;26146;51.114;5.654;2022-08-21T07:13:56;7.88;;;1.30;;
40433;SDS011;26146;51.114;5.654;2022-08-21T07:17:58;6.72;;;1.10;;
40433;SDS011;26146;51.114;5.654;2022-08-21T07:22:00;7.57;;;1.10;;
40433;SDS011;26146;51.114;5.654;2022-08-21T07:26:02;8.13;;;1.33;;
40433;SDS011;26146;51.114;5.654;2022-08-21T07:30:04;11.00;;;1.13;;
40433;SDS011;26146;51.114;5.654;2022-08-21T07:34:13;12.48;;;1.25;;
40433;SDS011;26146;51.114;5.654;2022-08-21T07:38:14;7.70;;;1.20;;
40433;SDS011;26146;51.114;5.654;2022-08-21T07:42:19;8.27;;;1.13;;
40433;SDS011;26146;51.114;5.654;2022-08-21T07:46:22;8.70;;;1.30;;
40433;SDS011;26146;51.114;5.654;2022-08-21T07:50:24;9.55;;;1.30;;
40433;SDS011;26146;51.114;5.654;2022-08-21T07:54:25;8.38;;;1.50;;
40433;SDS011;26146;51.114;5.654;2022-08-21T07:58:26;9.05;;;1.30;;
40433;SDS011;26146;51.114;5.654;2022-08-21T08:02:30;8.60;;;1.30;;
40433;SDS011;26146;51.114;5.654;2022-08-21T08:06:31;10.20;;;1.42;;
40433;SDS011;26146;51.114;5.654;2022-08-21T08:10:32;7.88;;;1.50;;
40433;SDS011;26146;51.114;5.654;2022-08-21T08:14:34;10.75;;;1.40;;
40433;SDS011;26146;51.114;5.654;2022-08-21T08:18:35;10.32;;;1.30;;
40433;SDS011;26146;51.114;5.654;2022-08-21T08:22:36;12.80;;;1.85;;
40433;SDS011;26146;51.114;5.654;2022-08-21T08:26:39;9.80;;;1.30;;
40433;SDS011;26146;51.114;5.654;2022-08-21T08:30:40;10.90;;;1.13;;
40433;SDS011;26146;51.114;5.654;2022-08-21T08:34:41;6.55;;;1.00;;
40433;SDS011;26146;51.114;5.654;2022-08-21T08:38:41;7.00;;;1.00;;
40433;SDS011;26146;51.114;5.654;2022-08-21T08:42:43;6.35;;;0.95;;
40433;SDS011;26146;51.114;5.654;2022-08-21T08:46:45;8.02;;;1.27;;
40433;SDS011;26146;51.114;5.654;2022-08-21T08:50:55;8.48;;;1.08;;
40433;SDS011;26146;51.114;5.654;2022-08-21T08:59:27;7.63;;;0.90;;
40433;SDS011;26146;51.114;5.654;2022-08-21T09:03:26;9.30;;;0.93;;
40433;SDS011;26146;51.114;5.654;2022-08-21T09:07:47;8.10;;;1.10;;
40433;SDS011;26146;51.114;5.654;2022-08-21T09:25:20;8.55;;;1.27;;
40433;SDS011;26146;51.114;5.654;2022-08-21T09:29:25;7.28;;;0.90;;
40433;SDS011;26146;51.114;5.654;2022-08-21T09:33:32;6.70;;;1.15;;
40433;SDS011;26146;51.114;5.654;2022-08-21T09:37:35;6.38;;;0.90;;
40433;SDS011;26146;51.114;5.654;2022-08-21T09:41:45;7.63;;;1.15;;
40433;SDS011;26146;51.114;5.654;2022-08-21T09:46:11;6.65;;;0.93;;
40433;SDS011;26146;51.114;5.654;2022-08-21T09:50:22;6.97;;;0.80;;
40433;SDS011;26146;51.114;5.654;2022-08-21T09:54:27;7.03;;;1.00;;
40433;SDS011;26146;51.114;5.654;2022-08-21T09:58:40;7.45;;;1.40;;
40433;SDS011;26146;51.114;5.654;2022-08-21T10:02:44;5.53;;;0.80;;
40433;SDS011;26146;51.114;5.654;2022-08-21T10:06:45;6.03;;;0.90;;
40433;SDS011;26146;51.114;5.654;2022-08-21T10:10:50;6.10;;;1.00;;
40433;SDS011;26146;51.114;5.654;2022-08-21T10:15:02;7.72;;;1.00;;
40433;SDS011;26146;51.114;5.654;2022-08-21T10:23:35;9.25;;;1.10;;
40433;SDS011;26146;51.114;5.654;2022-08-21T10:44:50;5.47;;;0.80;;
40433;SDS011;26146;51.114;5.654;2022-08-21T10:57:29;7.07;;;0.70;;
40433;SDS011;26146;51.114;5.654;2022-08-21T11:01:54;6.15;;;1.00;;
40433;SDS011;26146;51.114;5.654;2022-08-21T11:06:13;6.30;;;0.98;;
40433;SDS011;26146;51.114;5.654;2022-08-21T11:23:20;6.07;;;0.80;;
40433;SDS011;26146;51.114;5.654;2022-08-21T11:48:47;5.68;;;0.80;;
40433;SDS011;26146;51.114;5.654;2022-08-21T11:53:06;5.45;;;0.70;;
40433;SDS011;26146;51.114;5.654;2022-08-21T11:57:14;6.40;;;0.80;;
40433;SDS011;26146;51.114;5.654;2022-08-21T12:01:27;6.20;;;0.80;;
40433;SDS011;26146;51.114;5.654;2022-08-21T12:05:36;5.72;;;0.70;;
40433;SDS011;26146;51.114;5.654;2022-08-21T12:09:39;7.88;;;0.80;;
40433;SDS011;26146;51.114;5.654;2022-08-21T12:13:52;6.63;;;0.80;;
40433;SDS011;26146;51.114;5.654;2022-08-21T12:17:58;6.72;;;0.90;;
40433;SDS011;26146;51.114;5.654;2022-08-21T12:22:18;9.52;;;0.98;;
40433;SDS011;26146;51.114;5.654;2022-08-21T12:26:23;5.32;;;0.80;;
40433;SDS011;26146;51.114;5.654;2022-08-21T12:34:29;5.68;;;1.00;;
40433;SDS011;26146;51.114;5.654;2022-08-21T12:43:06;6.22;;;0.75;;
40433;SDS011;26146;51.114;5.654;2022-08-21T12:47:34;5.32;;;0.70;;
40433;SDS011;26146;51.114;5.654;2022-08-21T12:51:54;6.95;;;0.80;;
40433;SDS011;26146;51.114;5.654;2022-08-21T12:56:23;5.83;;;0.90;;
40433;SDS011;26146;51.114;5.654;2022-08-21T13:00:29;8.55;;;1.13;;
40433;SDS011;26146;51.114;5.654;2022-08-21T13:04:39;6.00;;;0.82;;
40433;SDS011;26146;51.114;5.654;2022-08-21T13:08:41;5.65;;;0.82;;
40433;SDS011;26146;51.114;5.654;2022-08-21T13:12:47;7.05;;;0.88;;
40433;SDS011;26146;51.114;5.654;2022-08-21T13:16:52;5.63;;;0.90;;
40433;SDS011;26146;51.114;5.654;2022-08-21T13:21:09;7.60;;;0.82;;
40433;SDS011;26146;51.114;5.654;2022-08-21T13:25:17;5.28;;;0.80;;
40433;SDS011;26146;51.114;5.654;2022-08-21T13:29:22;6.17;;;0.90;;
40433;SDS011;26146;51.114;5.654;2022-08-21T13:33:27;5.28;;;0.88;;
40433;SDS011;26146;51.114;5.654;2022-08-21T13:37:33;6.55;;;0.85;;
40433;SDS011;26146;51.114;5.654;2022-08-21T13:45:38;5.53;;;0.73;;
40433;SDS011;26146;51.114;5.654;2022-08-21T13:49:46;5.45;;;0.60;;
40433;SDS011;26146;51.114;5.654;2022-08-21T13:53:49;5.68;;;0.73;;
40433;SDS011;26146;51.114;5.654;2022-08-21T13:57:58;5.53;;;0.80;;
40433;SDS011;26146;51.114;5.654;2022-08-21T14:02:02;5.32;;;0.68;;
40433;SDS011;26146;51.114;5.654;2022-08-21T14:06:14;6.28;;;0.63;;
40433;SDS011;26146;51.114;5.654;2022-08-21T14:10:21;5.25;;;0.73;;
40433;SDS011;26146;51.114;5.654;2022-08-21T14:14:24;6.40;;;0.80;;
40433;SDS011;26146;51.114;5.654;2022-08-21T14:18:29;8.82;;;1.02;;
40433;SDS011;26146;51.114;5.654;2022-08-21T14:22:32;6.45;;;0.80;;
40433;SDS011;26146;51.114;5.654;2022-08-21T14:27:02;4.95;;;0.77;;
40433;SDS011;26146;51.114;5.654;2022-08-21T14:31:15;5.35;;;0.70;;
40433;SDS011;26146;51.114;5.654;2022-08-21T14:35:18;5.88;;;0.65;;
40433;SDS011;26146;51.114;5.654;2022-08-21T14:39:21;9.32;;;0.98;;
40433;SDS011;26146;51.114;5.654;2022-08-21T14:43:22;7.85;;;1.00;;
40433;SDS011;26146;51.114;5.654;2022-08-21T14:47:25;6.95;;;0.80;;
40433;SDS011;26146;51.114;5.654;2022-08-21T14:51:28;6.93;;;0.80;;
40433;SDS011;26146;51.114;5.654;2022-08-21T14:55:30;6.82;;;0.95;;
40433;SDS011;26146;51.114;5.654;2022-08-21T14:59:51;6.53;;;0.80;;
40433;SDS011;26146;51.114;5.654;2022-08-21T15:03:52;6.50;;;0.90;;
40433;SDS011;26146;51.114;5.654;2022-08-21T15:07:56;6.30;;;0.80;;
40433;SDS011;26146;51.114;5.654;2022-08-21T15:11:57;6.80;;;1.30;;
40433;SDS011;26146;51.114;5.654;2022-08-21T15:16:00;6.50;;;0.90;;
40433;SDS011;26146;51.114;5.654;2022-08-21T15:20:03;7.97;;;1.17;;
40433;SDS011;26146;51.114;5.654;2022-08-21T15:24:06;7.00;;;1.00;;
40433;SDS011;26146;51.114;5.654;2022-08-21T15:28:07;6.68;;;1.00;;
40433;SDS011;26146;51.114;5.654;2022-08-21T15:32:19;7.93;;;0.90;;
40433;SDS011;26146;51.114;5.654;2022-08-21T15:36:25;6.15;;;1.10;;
40433;SDS011;26146;51.114;5.654;2022-08-21T15:40:25;11.35;;;1.15;;
40433;SDS011;26146;51.114;5.654;2022-08-21T15:44:27;5.85;;;1.00;;
40433;SDS011;26146;51.114;5.654;2022-08-21T15:48:29;7.68;;;1.08;;
40433;SDS011;26146;51.114;5.654;2022-08-21T15:52:30;7.38;;;0.90;;
40433;SDS011;26146;51.114;5.654;2022-08-21T15:56:34;7.53;;;1.05;;
40433;SDS011;26146;51.114;5.654;2022-08-21T16:00:37;7.22;;;1.00;;
40433;SDS011;26146;51.114;5.654;2022-08-21T16:04:38;7.80;;;1.15;;
40433;SDS011;26146;51.114;5.654;2022-08-21T16:08:39;6.43;;;0.90;;
40433;SDS011;26146;51.114;5.654;2022-08-21T16:12:44;6.63;;;0.90;;
40433;SDS011;26146;51.114;5.654;2022-08-21T16:16:49;5.38;;;0.95;;
40433;SDS011;26146;51.114;5.654;2022-08-21T16:20:51;6.32;;;0.90;;
40433;SDS011;26146;51.114;5.654;2022-08-21T16:24:52;8.27;;;0.90;;
40433;SDS011;26146;51.114;5.654;2022-08-21T16:28:54;6.57;;;0.90;;
40433;SDS011;26146;51.114;5.654;2022-08-21T16:32:58;6.72;;;1.02;;
40433;SDS011;26146;51.114;5.654;2022-08-21T16:37:01;6.57;;;1.00;;
40433;SDS011;26146;51.114;5.654;2022-08-21T16:41:05;7.65;;;1.38;;
40433;SDS011;26146;51.114;5.654;2022-08-21T16:45:13;9.05;;;1.08;;
40433;SDS011;26146;51.114;5.654;2022-08-21T16:53:17;6.28;;;1.00;;
40433;SDS011;26146;51.114;5.654;2022-08-21T16:57:18;8.05;;;1.20;;
40433;SDS011;26146;51.114;5.654;2022-08-21T17:01:21;6.80;;;1.15;;
40433;SDS011;26146;51.114;5.654;2022-08-21T17:05:26;6.88;;;1.10;;
40433;SDS011;26146;51.114;5.654;2022-08-21T17:09:27;5.28;;;0.77;;
40433;SDS011;26146;51.114;5.654;2022-08-21T17:13:28;7.35;;;1.08;;
40433;SDS011;26146;51.114;5.654;2022-08-21T17:17:30;9.43;;;1.20;;
40433;SDS011;26146;51.114;5.654;2022-08-21T17:21:35;7.45;;;1.10;;
40433;SDS011;26146;51.114;5.654;2022-08-21T17:25:36;8.40;;;1.10;;
40433;SDS011;26146;51.114;5.654;2022-08-21T17:29:41;7.15;;;0.93;;
40433;SDS011;26146;51.114;5.654;2022-08-21T17:33:43;8.20;;;1.00;;
40433;SDS011;26146;51.114;5.654;2022-08-21T17:37:49;7.43;;;1.40;;
40433;SDS011;26146;51.114;5.654;2022-08-21T17:41:52;7.15;;;1.20;;
40433;SDS011;26146;51.114;5.654;2022-08-21T17:45:55;5.65;;;1.10;;
40433;SDS011;26146;51.114;5.654;2022-08-21T17:49:56;8.02;;;1.10;;
40433;SDS011;26146;51.114;5.654;2022-08-21T17:53:57;8.45;;;1.30;;
40433;SDS011;26146;51.114;5.654;2022-08-21T17:58:01;9.70;;;1.40;;
40433;SDS011;26146;51.114;5.654;2022-08-21T18:02:04;6.53;;;1.13;;
40433;SDS011;26146;51.114;5.654;2022-08-21T18:06:07;8.20;;;1.73;;
40433;SDS011;26146;51.114;5.654;2022-08-21T18:10:09;9.57;;;2.40;;
40433;SDS011;26146;51.114;5.654;2022-08-21T18:14:11;8.30;;;2.30;;
40433;SDS011;26146;51.114;5.654;2022-08-21T18:18:12;8.90;;;2.75;;
40433;SDS011;26146;51.114;5.654;2022-08-21T18:22:15;9.27;;;2.60;;
40433;SDS011;26146;51.114;5.654;2022-08-21T18:26:18;8.20;;;2.50;;
40433;SDS011;26146;51.114;5.654;2022-08-21T18:30:26;11.43;;;2.80;;
40433;SDS011;26146;51.114;5.654;2022-08-21T18:34:30;9.50;;;2.53;;
40433;SDS011;26146;51.114;5.654;2022-08-21T18:38:41;11.55;;;2.55;;
40433;SDS011;26146;51.114;5.654;2022-08-21T18:42:43;9.75;;;2.92;;
40433;SDS011;26146;51.114;5.654;2022-08-21T18:47:05;9.15;;;2.72;;
40433;SDS011;26146;51.114;5.654;2022-08-21T18:51:11;10.85;;;2.78;;
40433;SDS011;26146;51.114;5.654;2022-08-21T18:55:12;11.38;;;3.30;;
40433;SDS011;26146;51.114;5.654;2022-08-21T18:59:14;10.23;;;3.05;;
40433;SDS011;26146;51.114;5.654;2022-08-21T19:03:19;13.45;;;3.13;;
40433;SDS011;26146;51.114;5.654;2022-08-21T19:07:23;9.60;;;3.15;;
40433;SDS011;26146;51.114;5.654;2022-08-21T19:11:27;9.13;;;2.80;;
40433;SDS011;26146;51.114;5.654;2022-08-21T19:15:28;11.07;;;2.90;;
40433;SDS011;26146;51.114;5.654;2022-08-21T19:19:30;10.80;;;2.70;;
40433;SDS011;26146;51.114;5.654;2022-08-21T19:23:33;9.50;;;2.58;;
40433;SDS011;26146;51.114;5.654;2022-08-21T19:27:35;10.00;;;2.75;;
40433;SDS011;26146;51.114;5.654;2022-08-21T19:31:43;9.65;;;2.90;;
40433;SDS011;26146;51.114;5.654;2022-08-21T19:35:44;10.63;;;2.90;;
40433;SDS011;26146;51.114;5.654;2022-08-21T19:39:46;9.73;;;2.67;;
40433;SDS011;26146;51.114;5.654;2022-08-21T19:43:48;10.40;;;3.05;;
40433;SDS011;26146;51.114;5.654;2022-08-21T19:47:52;12.15;;;2.67;;
40433;SDS011;26146;51.114;5.654;2022-08-21T19:51:53;11.40;;;3.00;;
40433;SDS011;26146;51.114;5.654;2022-08-21T19:55:54;11.23;;;3.33;;
40433;SDS011;26146;51.114;5.654;2022-08-21T19:59:55;10.00;;;2.90;;
40433;SDS011;26146;51.114;5.654;2022-08-21T20:03:56;10.15;;;3.55;;
40433;SDS011;26146;51.114;5.654;2022-08-21T20:07:57;9.50;;;2.85;;
40433;SDS011;26146;51.114;5.654;2022-08-21T20:12:03;11.10;;;3.00;;
40433;SDS011;26146;51.114;5.654;2022-08-21T20:16:08;8.65;;;2.70;;
40433;SDS011;26146;51.114;5.654;2022-08-21T20:20:11;10.63;;;2.80;;
40433;SDS011;26146;51.114;5.654;2022-08-21T20:24:12;8.35;;;2.60;;
40433;SDS011;26146;51.114;5.654;2022-08-21T20:28:14;11.38;;;2.95;;
40433;SDS011;26146;51.114;5.654;2022-08-21T20:32:15;8.38;;;2.72;;
40433;SDS011;26146;51.114;5.654;2022-08-21T20:36:19;9.32;;;3.10;;
40433;SDS011;26146;51.114;5.654;2022-08-21T20:40:21;9.45;;;2.90;;
40433;SDS011;26146;51.114;5.654;2022-08-21T20:44:25;10.85;;;3.03;;
40433;SDS011;26146;51.114;5.654;2022-08-21T20:48:31;12.60;;;3.05;;
40433;SDS011;26146;51.114;5.654;2022-08-21T20:52:34;9.87;;;2.87;;
40433;SDS011;26146;51.114;5.654;2022-08-21T20:56:38;11.63;;;2.80;;
40433;SDS011;26146;51.114;5.654;2022-08-21T21:00:47;9.30;;;2.60;;
40433;SDS011;26146;51.114;5.654;2022-08-21T21:05:10;11.32;;;2.90;;
40433;SDS011;26146;51.114;5.654;2022-08-21T21:09:13;10.00;;;2.70;;
40433;SDS011;26146;51.114;5.654;2022-08-21T21:13:40;17.70;;;3.88;;
40433;SDS011;26146;51.114;5.654;2022-08-21T21:17:46;10.65;;;2.80;;
40433;SDS011;26146;51.114;5.654;2022-08-21T21:22:08;9.30;;;2.88;;
40433;SDS011;26146;51.114;5.654;2022-08-21T21:26:25;7.40;;;2.78;;
40433;SDS011;26146;51.114;5.654;2022-08-21T21:30:37;7.65;;;2.50;;
40433;SDS011;26146;51.114;5.654;2022-08-21T21:34:42;9.88;;;2.85;;
40433;SDS011;26146;51.114;5.654;2022-08-21T21:39:28;8.95;;;2.70;;
40433;SDS011;26146;51.114;5.654;2022-08-21T21:47:28;7.63;;;2.58;;
40433;SDS011;26146;51.114;5.654;2022-08-21T22:00:29;7.72;;;2.47;;
40433;SDS011;26146;51.114;5.654;2022-08-21T22:13:21;9.18;;;2.40;;
40433;SDS011;26146;51.114;5.654;2022-08-21T22:21:34;10.23;;;2.63;;
40433;SDS011;26146;51.114;5.654;2022-08-21T22:25:39;12.80;;;2.75;;
40433;SDS011;26146;51.114;5.654;2022-08-21T22:33:58;8.07;;;2.60;;
40433;SDS011;26146;51.114;5.654;2022-08-21T22:38:15;10.80;;;2.63;;
40433;SDS011;26146;51.114;5.654;2022-08-21T22:42:26;8.38;;;2.50;;
40433;SDS011;26146;51.114;5.654;2022-08-21T22:50:46;8.07;;;2.60;;
40433;SDS011;26146;51.114;5.654;2022-08-21T22:55:00;8.57;;;2.75;;
40433;SDS011;26146;51.114;5.654;2022-08-21T22:59:28;8.63;;;2.55;;
40433;SDS011;26146;51.114;5.654;2022-08-21T23:03:31;9.30;;;2.40;;
40433;SDS011;26146;51.114;5.654;2022-08-21T23:07:44;8.88;;;2.70;;
40433;SDS011;26146;51.114;5.654;2022-08-21T23:11:47;8.02;;;2.30;;
40433;SDS011;26146;51.114;5.654;2022-08-21T23:32:56;9.57;;;3.10;;
40433;SDS011;26146;51.114;5.654;2022-08-21T23:41:36;9.90;;;3.33;;
40433;SDS011;26146;51.114;5.654;2022-08-21T23:50:09;8.77;;;2.97;;
40433;SDS011;26146;51.114;5.654;2022-08-21T23:54:20;10.55;;;3.28;;
40433;SDS011;26146;51.114;5.654;2022-08-21T23:58:30;8.93;;;3.08;;
